createdAt,value
2019-05-15T00:02:20.419Z,1.77
2019-05-15T00:04:50.530Z,2.50
2019-05-15T00:07:20.550Z,1.77
2019-05-15T00:09:50.653Z,1.80
2019-05-15T00:12:20.694Z,1.30
2019-05-15T00:14:50.786Z,1.50
2019-05-15T00:17:20.825Z,1.87
2019-05-15T00:19:50.929Z,1.80
2019-05-15T00:22:20.973Z,2.60
2019-05-15T00:24:51.076Z,4.30
2019-05-15T00:27:21.120Z,3.80
2019-05-15T00:29:51.214Z,2.20
2019-05-15T00:32:21.264Z,1.83
2019-05-15T00:34:51.352Z,2.70
2019-05-15T00:37:21.387Z,2.30
2019-05-15T00:39:51.477Z,2.30
2019-05-15T00:42:21.509Z,1.70
2019-05-15T00:44:51.608Z,2.40
2019-05-15T00:47:21.635Z,1.80
2019-05-15T00:49:51.743Z,3.23
2019-05-15T00:52:21.877Z,2.10
2019-05-15T00:54:51.960Z,1.67
2019-05-15T00:57:21.998Z,2.23
2019-05-15T00:59:52.101Z,2.20
2019-05-15T01:02:22.144Z,1.70
2019-05-15T01:04:53.602Z,2.23
2019-05-15T01:07:23.666Z,3.20
2019-05-15T01:09:53.771Z,2.90
2019-05-15T01:12:23.809Z,1.30
2019-05-15T01:14:54.084Z,3.37
2019-05-15T01:17:24.126Z,4.13
2019-05-15T01:19:54.231Z,3.13
2019-05-15T01:22:24.262Z,1.40
2019-05-15T01:24:54.349Z,2.23
2019-05-15T01:27:25.828Z,1.47
2019-05-15T01:29:58.041Z,1.57
2019-05-15T01:32:28.400Z,1.23
2019-05-15T01:34:58.734Z,1.30
2019-05-15T01:37:28.862Z,1.23
2019-05-15T01:39:58.959Z,1.80
2019-05-15T01:42:29.035Z,1.60
2019-05-15T01:44:59.141Z,6.17
2019-05-15T01:47:29.210Z,5.73
2019-05-15T01:49:59.314Z,1.33
2019-05-15T01:52:29.406Z,1.60
2019-05-15T01:54:59.497Z,1.60
2019-05-15T01:57:29.566Z,1.80
2019-05-15T02:00:00.986Z,1.50
2019-05-15T02:02:31.097Z,1.63
2019-05-15T02:05:01.500Z,1.83
2019-05-15T02:07:31.582Z,1.70
2019-05-15T02:10:01.706Z,1.80
2019-05-15T02:12:31.765Z,2.43
2019-05-15T02:15:01.870Z,1.67
2019-05-15T02:17:31.930Z,1.67
2019-05-15T02:20:02.029Z,1.73
2019-05-15T02:22:32.091Z,1.50
2019-05-15T02:25:02.492Z,1.80
2019-05-15T02:27:32.587Z,1.70
2019-05-15T02:30:21.061Z,2.00
2019-05-15T02:32:34.448Z,1.90
2019-05-15T02:35:09.535Z,2.00
2019-05-15T02:37:41.169Z,2.17
2019-05-15T02:40:10.682Z,2.23
2019-05-15T02:42:40.892Z,1.67
2019-05-15T02:45:10.995Z,1.87
2019-05-15T02:47:41.083Z,1.53
2019-05-15T02:50:11.514Z,1.47
2019-05-15T02:52:45.137Z,2.13
2019-05-15T02:55:13.424Z,2.50
2019-05-15T02:57:43.494Z,1.30
2019-05-15T03:00:35.301Z,2.70
2019-05-15T03:02:45.683Z,1.73
2019-05-15T03:05:15.894Z,2.10
2019-05-15T03:07:49.073Z,2.10
2019-05-15T03:10:19.999Z,1.93
2019-05-15T03:12:49.707Z,2.27
2019-05-15T03:15:19.827Z,2.17
2019-05-15T03:17:49.886Z,2.33
2019-05-15T03:20:19.994Z,2.30
2019-05-15T03:22:50.057Z,2.27
2019-05-15T03:25:20.160Z,2.47
2019-05-15T03:27:50.235Z,2.77
2019-05-15T03:30:22.012Z,3.80
2019-05-15T03:33:01.530Z,3.03
2019-05-15T03:35:32.163Z,4.30
2019-05-15T03:37:59.899Z,3.00
2019-05-15T03:40:30.150Z,3.17
2019-05-15T03:43:00.207Z,2.97
2019-05-15T03:45:30.309Z,2.70
2019-05-15T03:48:00.393Z,2.70
2019-05-15T03:50:30.499Z,1.90
2019-05-15T03:53:00.598Z,3.03
2019-05-15T03:55:30.676Z,3.10
2019-05-15T03:58:00.753Z,2.57
2019-05-15T04:00:30.879Z,6.47
2019-05-15T04:03:00.948Z,3.40
2019-05-15T04:05:31.033Z,3.03
2019-05-15T04:08:01.110Z,2.20
2019-05-15T04:10:31.211Z,2.17
2019-05-15T04:13:01.285Z,3.03
2019-05-15T04:15:31.748Z,2.97
2019-05-15T04:18:01.811Z,3.23
2019-05-15T04:20:31.905Z,2.53
2019-05-15T04:23:02.083Z,4.00
2019-05-15T04:25:33.059Z,3.53
2019-05-15T04:28:04.859Z,2.57
2019-05-15T04:30:34.952Z,4.60
2019-05-15T04:33:05.028Z,3.00
2019-05-15T04:35:35.141Z,2.50
2019-05-15T04:38:05.223Z,2.63
2019-05-15T04:40:35.312Z,3.30
2019-05-15T04:43:05.372Z,2.50
2019-05-15T04:45:35.692Z,2.70
2019-05-15T04:48:10.146Z,1.67
2019-05-15T04:50:40.093Z,1.83
2019-05-15T04:53:11.226Z,1.47
2019-05-15T04:55:41.376Z,2.50
2019-05-15T04:58:11.441Z,2.57
2019-05-15T05:00:55.148Z,2.40
2019-05-15T05:03:28.866Z,2.40
2019-05-15T05:05:59.121Z,2.80
2019-05-15T05:08:29.358Z,3.70
2019-05-15T05:10:59.530Z,2.77
2019-05-15T05:13:29.611Z,3.00
2019-05-15T05:15:59.726Z,2.63
2019-05-15T05:18:30.052Z,2.30
2019-05-15T05:21:00.172Z,3.27
2019-05-15T05:23:30.448Z,2.43
2019-05-15T05:26:00.526Z,1.83
2019-05-15T05:28:30.605Z,2.43
2019-05-15T05:31:00.684Z,2.40
2019-05-15T05:33:30.763Z,1.50
2019-05-15T05:36:01.555Z,1.97
2019-05-15T05:38:31.630Z,2.20
2019-05-15T05:41:01.719Z,2.43
2019-05-15T05:43:32.089Z,2.33
2019-05-15T05:46:02.166Z,2.27
2019-05-15T05:48:32.222Z,2.10
2019-05-15T05:51:02.321Z,1.73
2019-05-15T05:53:32.374Z,1.90
2019-05-15T05:56:02.463Z,2.00
2019-05-15T05:58:32.533Z,2.10
2019-05-15T06:01:02.628Z,2.40
2019-05-15T06:03:32.684Z,3.73
2019-05-15T06:06:02.800Z,2.67
2019-05-15T06:08:32.851Z,4.23
2019-05-15T06:11:03.011Z,2.20
2019-05-15T06:13:33.084Z,4.03
2019-05-15T06:16:03.192Z,2.63
2019-05-15T06:18:33.265Z,4.73
2019-05-15T06:21:03.367Z,2.73
2019-05-15T06:23:35.725Z,4.20
2019-05-15T06:26:05.227Z,3.93
2019-05-15T06:28:35.312Z,3.53
2019-05-15T06:31:05.392Z,3.40
2019-05-15T06:33:35.463Z,2.53
2019-05-15T06:36:05.562Z,3.07
2019-05-15T06:38:35.637Z,4.10
2019-05-15T06:41:05.736Z,2.90
2019-05-15T06:43:35.997Z,3.70
2019-05-15T06:46:06.118Z,3.30
2019-05-15T06:48:38.014Z,2.37
2019-05-15T06:51:08.816Z,3.30
2019-05-15T06:53:39.232Z,2.77
2019-05-15T06:56:09.332Z,3.80
2019-05-15T06:58:39.409Z,3.40
2019-05-15T07:01:09.511Z,3.37
2019-05-15T07:03:39.677Z,3.90
2019-05-15T07:06:09.820Z,4.00
2019-05-15T07:08:39.912Z,2.93
2019-05-15T07:11:09.983Z,3.87
2019-05-15T07:13:40.038Z,2.60
2019-05-15T07:16:10.184Z,5.03
2019-05-15T07:18:40.240Z,3.30
2019-05-15T07:21:10.711Z,2.60
2019-05-15T07:23:40.906Z,2.10
2019-05-15T07:26:10.989Z,2.37
2019-05-15T07:28:41.063Z,2.30
2019-05-15T07:31:11.765Z,2.87
2019-05-15T07:33:43.922Z,2.53
2019-05-15T07:36:13.829Z,3.30
2019-05-15T07:38:43.910Z,2.97
2019-05-15T07:41:13.996Z,4.13
2019-05-15T07:43:44.065Z,3.20
2019-05-15T07:46:14.173Z,3.43
2019-05-15T07:48:44.246Z,2.57
2019-05-15T07:51:14.343Z,3.57
2019-05-15T07:53:44.409Z,3.57
2019-05-15T07:56:14.508Z,4.23
2019-05-15T07:58:44.610Z,6.73
2019-05-15T08:01:14.690Z,4.30
2019-05-15T08:03:56.635Z,1.93
2019-05-15T08:06:17.991Z,2.90
2019-05-15T08:08:48.818Z,3.23
2019-05-15T08:11:23.947Z,3.30
2019-05-15T08:13:50.843Z,3.40
2019-05-15T08:16:20.929Z,2.27
2019-05-15T08:18:51.004Z,2.93
2019-05-15T08:21:21.093Z,3.13
2019-05-15T08:23:51.167Z,2.73
2019-05-15T08:26:21.243Z,3.13
2019-05-15T08:28:51.321Z,3.10
2019-05-15T08:31:21.418Z,2.80
2019-05-15T08:33:51.492Z,3.00
2019-05-15T08:36:21.585Z,2.90
2019-05-15T08:38:51.646Z,2.20
2019-05-15T08:41:21.737Z,2.27
2019-05-15T08:43:51.802Z,2.10
2019-05-15T08:46:21.900Z,4.63
2019-05-15T08:48:51.969Z,10.57
2019-05-15T08:51:22.087Z,3.27
2019-05-15T08:53:52.127Z,6.90
2019-05-15T08:56:22.228Z,11.00
2019-05-15T08:58:52.304Z,12.73
2019-05-15T09:01:22.395Z,9.00
2019-05-15T09:03:52.460Z,23.30
2019-05-15T09:06:23.268Z,13.47
2019-05-15T09:08:53.547Z,7.17
2019-05-15T09:11:23.657Z,11.57
2019-05-15T09:13:54.591Z,5.60
2019-05-15T09:16:24.941Z,6.80
2019-05-15T09:18:55.007Z,14.17
2019-05-15T09:21:25.100Z,5.17
2019-05-15T09:23:55.166Z,5.83
2019-05-15T09:26:25.261Z,8.20
2019-05-15T09:28:55.345Z,7.33
2019-05-15T09:31:25.453Z,4.63
2019-05-15T09:33:55.532Z,3.53
2019-05-15T09:36:25.726Z,6.20
2019-05-15T09:38:58.339Z,4.73
2019-05-15T09:41:28.662Z,6.80
2019-05-15T09:43:58.929Z,5.17
2019-05-15T09:46:29.280Z,4.73
2019-05-15T09:48:59.846Z,5.67
2019-05-15T09:51:29.928Z,7.03
2019-05-15T09:53:59.995Z,7.40
2019-05-15T09:56:30.115Z,6.20
2019-05-15T09:59:00.180Z,5.70
2019-05-15T10:01:30.264Z,5.43
2019-05-15T10:04:00.343Z,7.77
2019-05-15T10:06:30.749Z,5.67
2019-05-15T10:09:00.916Z,9.30
2019-05-15T10:11:31.013Z,5.67
2019-05-15T10:14:01.095Z,8.77
2019-05-15T10:16:31.551Z,8.00
2019-05-15T10:19:01.633Z,9.53
2019-05-15T10:21:32.705Z,7.33
2019-05-15T10:24:02.780Z,3.43
2019-05-15T10:26:32.936Z,8.27
2019-05-15T10:29:03.515Z,13.47
2019-05-15T10:31:33.612Z,7.00
2019-05-15T10:34:03.985Z,7.27
2019-05-15T10:36:34.094Z,6.33
2019-05-15T10:39:08.350Z,7.53
2019-05-15T10:41:38.793Z,5.77
2019-05-15T10:44:09.394Z,6.20
2019-05-15T10:46:39.574Z,4.93
2019-05-15T10:49:09.617Z,5.77
2019-05-15T10:51:39.910Z,4.90
2019-05-15T10:54:09.929Z,6.73
2019-05-15T10:56:40.015Z,3.80
2019-05-15T10:59:10.053Z,6.47
2019-05-15T11:01:40.118Z,7.67
2019-05-15T11:04:10.191Z,5.43
2019-05-15T11:06:40.293Z,6.70
2019-05-15T11:09:10.368Z,6.87
2019-05-15T11:11:40.474Z,10.77
2019-05-15T11:14:10.552Z,7.17
2019-05-15T11:16:40.757Z,9.13
2019-05-15T11:19:10.822Z,6.17
2019-05-15T11:21:43.501Z,5.20
2019-05-15T11:24:12.704Z,6.20
2019-05-15T11:26:42.796Z,6.20
2019-05-15T11:29:12.859Z,6.33
2019-05-15T11:31:42.965Z,6.13
2019-05-15T11:34:13.039Z,6.30
2019-05-15T11:36:43.136Z,5.57
2019-05-15T11:39:13.210Z,5.60
2019-05-15T11:41:43.307Z,6.13
2019-05-15T11:44:13.379Z,5.80
2019-05-15T11:46:43.601Z,6.43
2019-05-15T11:49:13.689Z,6.17
2019-05-15T11:51:43.785Z,7.47
2019-05-15T11:54:13.865Z,5.47
2019-05-15T11:56:43.954Z,6.73
2019-05-15T11:59:14.035Z,6.07
2019-05-15T12:01:44.213Z,6.03
2019-05-15T12:04:26.635Z,8.10
2019-05-15T12:06:58.291Z,5.00
2019-05-15T12:09:18.729Z,8.50
2019-05-15T12:11:49.022Z,6.10
2019-05-15T12:14:19.744Z,4.37
2019-05-15T12:17:05.171Z,5.40
2019-05-15T12:19:21.687Z,5.67
2019-05-15T12:21:51.783Z,6.50
2019-05-15T12:24:21.815Z,6.93
2019-05-15T12:26:51.916Z,6.70
2019-05-15T12:29:21.957Z,8.87
2019-05-15T12:31:52.108Z,8.20
2019-05-15T12:34:22.146Z,5.60
2019-05-15T12:36:57.674Z,5.00
2019-05-15T12:39:29.525Z,5.77
2019-05-15T13:02:08.627Z,5.33
2019-05-15T13:04:39.072Z,5.60
2019-05-15T13:07:13.827Z,5.83
2019-05-15T13:09:40.948Z,6.17
2019-05-15T13:12:11.033Z,6.10
2019-05-15T13:14:41.082Z,4.60
2019-05-15T13:17:11.564Z,6.50
2019-05-15T13:19:41.594Z,6.80
2019-05-15T13:22:19.004Z,5.50
2019-05-15T13:24:43.443Z,5.87
2019-05-15T13:27:13.617Z,6.47
2019-05-15T13:29:44.090Z,7.10
2019-05-15T13:32:14.191Z,5.60
2019-05-15T13:34:44.225Z,4.47
2019-05-15T13:37:26.334Z,4.97
2019-05-15T13:39:48.388Z,5.23
2019-05-15T13:42:18.176Z,4.50
2019-05-15T13:44:48.181Z,5.50
2019-05-15T13:47:18.289Z,5.67
2019-05-15T13:49:48.441Z,4.87
2019-05-15T13:52:18.879Z,5.13
2019-05-15T13:54:48.969Z,5.60
2019-05-15T13:57:19.085Z,9.30
2019-05-15T13:59:49.121Z,5.70
2019-05-15T14:02:19.239Z,6.10
2019-05-15T14:04:49.346Z,4.97
2019-05-15T14:07:19.463Z,6.10
2019-05-15T14:09:49.794Z,6.07
2019-05-15T14:12:19.889Z,4.63
2019-05-15T14:14:49.935Z,7.20
2019-05-15T14:17:20.041Z,6.03
2019-05-15T14:19:50.084Z,7.00
2019-05-15T14:22:20.478Z,5.33
2019-05-15T14:24:50.527Z,6.33
2019-05-15T14:27:20.633Z,7.77
2019-05-15T14:29:50.874Z,7.43
2019-05-15T14:32:34.466Z,6.20
2019-05-15T14:34:52.708Z,4.03
2019-05-15T14:37:22.840Z,6.23
2019-05-15T14:39:52.866Z,5.70
2019-05-15T14:42:22.984Z,6.67
2019-05-15T14:44:53.400Z,9.60
2019-05-15T14:47:26.265Z,5.17
2019-05-15T14:49:55.225Z,4.13
2019-05-15T14:52:25.323Z,6.50
2019-05-15T14:54:55.409Z,13.77
2019-05-15T14:57:25.708Z,6.40
2019-05-15T14:59:57.888Z,14.33
2019-05-15T15:02:27.589Z,6.97
2019-05-15T15:04:59.467Z,6.60
2019-05-15T15:07:29.453Z,6.97
2019-05-15T15:09:59.524Z,8.40
2019-05-15T15:12:29.630Z,7.03
2019-05-15T15:14:59.696Z,5.83
2019-05-15T15:17:29.818Z,7.27
2019-05-15T15:20:00.307Z,7.47
2019-05-15T15:22:30.702Z,6.57
2019-05-15T15:25:01.062Z,19.67
2019-05-15T15:27:31.192Z,7.77
2019-05-15T15:30:01.467Z,6.47
2019-05-15T15:32:31.582Z,6.97
2019-05-15T15:35:01.742Z,4.60
2019-05-15T15:37:31.849Z,5.97
2019-05-15T15:40:01.936Z,5.13
2019-05-15T15:42:32.037Z,7.93
2019-05-15T15:45:02.185Z,5.37
2019-05-15T15:47:32.409Z,6.17
2019-05-15T15:50:02.545Z,6.63
2019-05-15T15:52:32.640Z,6.47
2019-05-15T15:55:02.735Z,17.00
2019-05-15T15:57:32.968Z,9.27
2019-05-15T16:00:03.579Z,8.20
2019-05-15T16:02:33.680Z,7.50
2019-05-15T16:05:04.360Z,13.37
2019-05-15T16:07:34.644Z,7.83
2019-05-15T16:10:05.128Z,9.87
2019-05-15T16:12:35.316Z,4.43
2019-05-15T16:15:09.754Z,5.93
2019-05-15T16:17:40.079Z,8.57
2019-05-15T16:20:11.153Z,7.00
2019-05-15T16:22:43.118Z,6.47
2019-05-15T16:25:13.240Z,8.30
2019-05-15T16:27:43.436Z,7.03
2019-05-15T16:30:13.707Z,10.17
2019-05-15T16:32:43.811Z,9.17
2019-05-15T16:35:14.970Z,12.87
2019-05-15T16:37:45.096Z,26.27
2019-05-15T16:40:15.289Z,20.10
2019-05-15T16:42:45.413Z,74.97
2019-05-15T16:45:15.535Z,10.40
2019-05-15T16:47:47.891Z,8.93
2019-05-15T16:50:18.257Z,53.63
2019-05-15T16:52:49.179Z,15.70
2019-05-15T16:55:20.187Z,20.03
2019-05-15T16:57:50.600Z,19.10
2019-05-15T17:00:20.791Z,26.57
2019-05-15T17:03:08.242Z,9.30
2019-05-15T17:05:23.845Z,8.00
2019-05-15T17:07:54.030Z,22.17
2019-05-15T17:10:24.147Z,8.90
2019-05-15T17:12:54.265Z,57.37
2019-05-15T17:15:24.403Z,15.70
2019-05-15T17:17:54.584Z,9.63
2019-05-15T17:20:24.673Z,10.67
2019-05-15T17:22:54.765Z,10.93
2019-05-15T17:25:25.796Z,21.87
2019-05-15T17:27:58.419Z,19.10
2019-05-15T17:30:29.168Z,14.13
2019-05-15T17:33:02.183Z,14.03
2019-05-15T17:35:32.317Z,20.17
2019-05-15T17:38:02.867Z,23.57
2019-05-15T17:40:33.088Z,26.70
2019-05-15T17:43:04.768Z,21.60
2019-05-15T17:45:38.971Z,16.80
2019-05-15T17:48:11.786Z,25.60
2019-05-15T17:50:48.678Z,23.10
2019-05-15T17:53:14.201Z,35.80
2019-05-15T17:55:47.903Z,42.50
2019-05-15T17:58:19.732Z,18.60
2019-05-15T18:00:50.569Z,32.07
2019-05-15T18:03:31.451Z,31.53
2019-05-15T18:06:01.663Z,29.60
2019-05-15T18:08:33.081Z,44.10
2019-05-15T18:11:03.265Z,139.27
2019-05-15T18:13:33.387Z,172.57
2019-05-15T18:16:05.421Z,25.03
2019-05-15T18:18:35.820Z,15.67
2019-05-15T18:21:08.781Z,66.30
2019-05-15T18:23:39.236Z,44.13
2019-05-15T18:26:11.285Z,64.00
2019-05-15T18:28:42.119Z,46.33
2019-05-15T18:31:12.847Z,20.20
2019-05-15T18:33:53.368Z,11.53
2019-05-15T18:36:16.232Z,7.43
2019-05-15T18:38:48.273Z,10.53
2019-05-15T18:41:19.590Z,13.13
2019-05-15T18:43:50.646Z,15.23
2019-05-15T18:46:24.035Z,15.07
2019-05-15T18:48:57.919Z,12.97
2019-05-15T18:51:28.595Z,10.20
2019-05-15T18:54:03.354Z,11.13
2019-05-15T18:56:38.594Z,11.47
2019-05-15T18:59:13.399Z,10.50
2019-05-15T19:01:47.988Z,11.60
2019-05-15T19:04:19.865Z,10.70
2019-05-15T19:06:50.148Z,11.67
2019-05-15T19:09:21.185Z,9.13
2019-05-15T19:11:51.530Z,11.60
2019-05-15T19:14:21.747Z,11.23
2019-05-15T19:16:52.410Z,11.13
2019-05-15T19:19:33.861Z,13.40
2019-05-15T19:22:07.873Z,12.33
2019-05-15T19:24:40.200Z,10.33
2019-05-15T19:27:18.678Z,116.80
2019-05-15T19:29:50.672Z,27.67
2019-05-15T19:32:21.142Z,45.13
2019-05-15T19:34:51.247Z,29.30
2019-05-15T19:37:21.392Z,63.93
2019-05-15T19:39:51.507Z,31.97
2019-05-15T19:42:21.623Z,39.57
2019-05-15T19:44:51.884Z,25.47
2019-05-15T19:47:23.446Z,9.97
2019-05-15T19:49:53.808Z,7.50
2019-05-15T19:52:24.035Z,7.30
2019-05-15T19:54:54.201Z,11.97
2019-05-15T19:57:29.563Z,6.40
2019-05-15T20:00:25.467Z,5.40
2019-05-15T20:02:38.054Z,14.33
2019-05-15T20:05:12.146Z,11.43
2019-05-15T20:07:45.385Z,9.40
2019-05-15T20:10:18.664Z,18.93
2019-05-15T20:12:53.624Z,7.23
2019-05-15T20:15:28.521Z,7.17
2019-05-15T20:18:05.054Z,7.40
2019-05-15T20:20:40.572Z,4.37
2019-05-15T20:23:11.748Z,6.20
2019-05-15T20:25:42.929Z,4.77
2019-05-15T20:28:24.394Z,4.40
2019-05-15T20:31:20.250Z,3.80
2019-05-15T20:34:04.960Z,7.40
2019-05-15T20:36:29.721Z,2.70
2019-05-15T20:39:03.631Z,3.83
2019-05-15T20:41:48.612Z,3.87
2019-05-15T20:44:19.143Z,4.77
2019-05-15T20:47:00.559Z,5.27
2019-05-15T20:49:28.523Z,5.47
2019-05-15T20:52:14.766Z,4.67
2019-05-15T20:54:49.903Z,3.43
2019-05-15T20:57:28.234Z,3.83
2019-05-15T21:00:10.851Z,5.73
2019-05-15T21:02:42.582Z,4.17
2019-05-15T21:05:14.238Z,5.90
2019-05-15T21:07:44.326Z,6.40
2019-05-15T21:10:15.393Z,4.50
2019-05-15T21:12:48.627Z,4.93
2019-05-15T21:15:21.360Z,4.40
2019-05-15T21:18:10.872Z,3.90
2019-05-15T21:20:22.810Z,3.67
2019-05-15T21:22:53.010Z,4.70
2019-05-15T21:25:23.594Z,3.53
2019-05-15T21:27:53.674Z,3.40
2019-05-15T21:30:23.801Z,3.30
2019-05-15T21:32:53.893Z,6.20
2019-05-15T21:35:23.927Z,3.73
2019-05-15T21:37:54.142Z,4.20
2019-05-15T21:40:24.175Z,3.70
2019-05-15T21:42:54.274Z,3.87
2019-05-15T21:45:24.315Z,3.03
2019-05-15T21:47:54.455Z,2.37
2019-05-15T21:50:24.478Z,3.40
2019-05-15T21:52:54.581Z,3.23
2019-05-15T21:55:24.627Z,2.40
2019-05-15T21:57:54.903Z,3.03
2019-05-15T22:00:32.410Z,2.60
2019-05-15T22:03:02.584Z,2.60
2019-05-15T22:05:32.740Z,2.37
2019-05-15T22:08:02.931Z,2.10
2019-05-15T22:10:32.960Z,2.50
2019-05-15T22:13:04.266Z,2.10
2019-05-15T22:15:34.402Z,2.10
2019-05-15T22:18:05.523Z,2.50
2019-05-15T22:20:35.542Z,2.97
2019-05-15T22:23:08.074Z,2.97
2019-05-15T22:25:38.560Z,2.87
2019-05-15T22:28:08.994Z,5.30
2019-05-15T22:30:39.640Z,5.83
2019-05-15T22:33:09.745Z,2.90
2019-05-15T22:35:40.043Z,2.47
2019-05-15T22:38:10.238Z,2.47
2019-05-15T22:40:40.783Z,2.50
2019-05-15T22:43:10.955Z,2.90
2019-05-15T22:45:40.989Z,2.40
2019-05-15T22:48:11.092Z,3.00
2019-05-15T22:50:41.162Z,2.77
2019-05-15T22:53:11.240Z,3.10
2019-05-15T22:55:41.269Z,2.70
2019-05-15T22:58:11.653Z,2.20
2019-05-15T23:00:41.741Z,2.40
2019-05-15T23:03:11.836Z,2.70
2019-05-15T23:05:41.914Z,2.57
2019-05-15T23:08:12.015Z,2.43
2019-05-15T23:10:42.283Z,2.30
2019-05-15T23:13:12.659Z,2.50
2019-05-15T23:15:42.727Z,2.37
2019-05-15T23:18:12.812Z,2.60
2019-05-15T23:20:42.879Z,2.43
2019-05-15T23:23:12.976Z,1.90
2019-05-15T23:25:43.040Z,2.67
2019-05-15T23:28:13.154Z,2.30
2019-05-15T23:30:43.332Z,2.30
2019-05-15T23:33:13.426Z,2.30
2019-05-15T23:35:43.520Z,2.13
2019-05-15T23:38:13.594Z,2.80
2019-05-15T23:40:43.671Z,2.60
2019-05-15T23:43:13.861Z,3.73
2019-05-15T23:45:43.930Z,4.10
2019-05-15T23:48:14.035Z,3.10
2019-05-15T23:50:44.103Z,4.57
2019-05-15T23:53:16.543Z,3.40
2019-05-15T23:55:45.956Z,3.57
2019-05-15T23:58:18.678Z,2.93
